Time;durP1;ratioP1;P1;durP2;ratioP2;P2;SDS_P1;SDS_P2;PMS_P1;PMS_P2;Temp;Humidity;BMP_temperature;BMP_pressure;BME280_temperature;BME280_humidity;BME280_pressure;Samples;Min_cycle;Max_cycle;Signal;HPM_P1;HPM_P2
2023/05/12 00:00:59;;;;;;;26.07;11.40;;;12.40;99.90;;;;;;6112049;23;20164;-74
2023/05/12 00:03:25;;;;;;;19.33;10.00;;;12.30;99.90;;;;;;6103630;23;20192;-72
2023/05/12 00:05:50;;;;;;;22.07;10.50;;;12.30;99.90;;;;;;6106788;23;20140;-72
2023/05/12 00:08:16;;;;;;;30.53;11.63;;;12.30;99.90;;;;;;6106163;23;20495;-72
2023/05/12 00:10:42;;;;;;;28.27;13.90;;;12.30;99.90;;;;;;6103006;23;20225;-72
2023/05/12 00:13:08;;;;;;;29.50;13.43;;;12.20;99.90;;;;;;6105354;23;20708;-74
2023/05/12 00:15:36;;;;;;;27.07;12.27;;;12.20;99.90;;;;;;6110582;23;20129;-75
2023/05/12 00:18:01;;;;;;;22.90;10.20;;;12.20;99.90;;;;;;6043468;23;20382;-72
2023/05/12 00:20:27;;;;;;;24.40;11.20;;;12.20;99.90;;;;;;6107987;23;20467;-76
2023/05/12 00:22:53;;;;;;;27.53;11.70;;;12.20;99.90;;;;;;6079395;23;20515;-72
2023/05/12 00:25:18;;;;;;;29.47;12.37;;;12.20;99.90;;;;;;6106554;23;20157;-74
2023/05/12 00:27:44;;;;;;;27.07;11.23;;;12.20;99.90;;;;;;6106466;23;20406;-73
2023/05/12 00:30:10;;;;;;;25.83;11.53;;;12.30;99.90;;;;;;6105526;23;20543;-71
2023/05/12 00:32:36;;;;;;;30.03;12.53;;;12.30;99.90;;;;;;6104100;23;20566;-73
2023/05/12 00:35:02;;;;;;;34.03;14.53;;;12.30;99.90;;;;;;6104237;23;20376;-72
2023/05/12 00:37:27;;;;;;;33.00;14.03;;;12.40;99.90;;;;;;6103927;23;20137;-73
2023/05/12 00:39:53;;;;;;;34.60;14.20;;;12.40;99.90;;;;;;6078776;23;20400;-75
2023/05/12 00:42:18;;;;;;;39.43;14.20;;;12.40;99.90;;;;;;6080422;23;20411;-74
2023/05/12 00:44:44;;;;;;;31.13;11.80;;;12.40;99.90;;;;;;6104882;23;20234;-72
2023/05/12 00:47:11;;;;;;;30.33;12.20;;;12.50;99.90;;;;;;6104414;23;20156;-74
2023/05/12 00:49:41;;;;;;;37.73;14.20;;;12.50;99.90;;;;;;6078809;23;20161;-73
2023/05/12 00:52:07;;;;;;;35.83;14.40;;;12.50;99.90;;;;;;6104797;23;20416;-72
2023/05/12 00:54:33;;;;;;;41.47;15.47;;;12.50;99.90;;;;;;6103050;23;20602;-73
2023/05/12 00:57:00;;;;;;;44.57;16.50;;;12.50;99.90;;;;;;6079487;23;20380;-73
2023/05/12 00:59:28;;;;;;;48.97;16.00;;;12.50;99.90;;;;;;6102957;23;20836;-74
2023/05/12 01:01:54;;;;;;;39.10;14.87;;;12.60;99.90;;;;;;6104662;23;20365;-72
2023/05/12 01:04:20;;;;;;;39.43;13.17;;;12.60;99.90;;;;;;6105401;23;20456;-72
2023/05/12 01:06:56;;;;;;;39.20;15.70;;;12.60;99.90;;;;;;6105562;23;20133;-72
2023/05/12 01:09:22;;;;;;;34.30;12.77;;;12.60;99.90;;;;;;6104159;23;20396;-73
2023/05/12 01:11:47;;;;;;;33.43;13.40;;;12.60;99.90;;;;;;6080056;23;20817;-71
2023/05/12 01:14:14;;;;;;;35.67;16.57;;;12.60;99.90;;;;;;6081370;23;20149;-74
2023/05/12 01:16:52;;;;;;;39.10;16.13;;;12.60;99.90;;;;;;6108125;23;20380;-71
2023/05/12 01:19:45;;;;;;;31.23;13.40;;;12.60;99.90;;;;;;6109818;23;20487;-72
2023/05/12 01:22:11;;;;;;;27.50;9.07;;;12.60;99.90;;;;;;6082337;23;20365;-72
2023/05/12 01:24:52;;;;;;;27.07;10.10;;;12.60;99.90;;;;;;6101651;23;20436;-73
2023/05/12 01:27:20;;;;;;;21.80;8.10;;;12.70;99.90;;;;;;6097998;23;20415;-73
2023/05/12 01:29:47;;;;;;;20.20;8.70;;;12.60;99.90;;;;;;6073947;23;20396;-74
2023/05/12 01:32:15;;;;;;;27.67;10.23;;;12.70;99.90;;;;;;6098651;23;20377;-72
2023/05/12 01:34:42;;;;;;;35.33;15.60;;;12.60;99.90;;;;;;6075039;23;20790;-74
2023/05/12 01:37:09;;;;;;;46.30;18.77;;;12.60;99.90;;;;;;6075260;23;20387;-74
2023/05/12 01:39:35;;;;;;;46.50;19.10;;;12.50;99.90;;;;;;6074295;23;20476;-74
2023/05/12 01:42:03;;;;;;;45.80;17.20;;;12.50;99.90;;;;;;6100269;23;20373;-72
2023/05/12 01:44:28;;;;;;;39.47;16.17;;;12.40;99.90;;;;;;6074367;23;20451;-73
2023/05/12 01:46:55;;;;;;;33.73;13.57;;;12.40;99.90;;;;;;6100970;23;20375;-72
2023/05/12 01:49:21;;;;;;;45.27;16.30;;;12.40;99.90;;;;;;6097613;23;20228;-71
2023/05/12 01:51:48;;;;;;;32.33;13.30;;;12.40;99.90;;;;;;6098178;23;20803;-73
2023/05/12 01:54:16;;;;;;;35.47;12.43;;;12.40;99.90;;;;;;6074102;23;20400;-72
2023/05/12 01:56:42;;;;;;;30.50;13.00;;;12.40;99.90;;;;;;6076858;23;20458;-73
2023/05/12 01:59:08;;;;;;;25.20;11.57;;;12.40;99.90;;;;;;6074302;23;20175;-72
2023/05/12 02:01:33;;;;;;;26.07;11.30;;;12.40;99.90;;;;;;6074965;23;20467;-72
2023/05/12 02:04:00;;;;;;;22.00;10.43;;;12.50;99.90;;;;;;6075152;23;20246;-73
2023/05/12 02:06:27;;;;;;;25.00;9.30;;;12.50;99.90;;;;;;6074126;23;20380;-72
2023/05/12 02:08:53;;;;;;;17.03;7.40;;;12.50;99.90;;;;;;6097496;23;20381;-73
2023/05/12 02:11:19;;;;;;;27.00;10.90;;;12.50;99.90;;;;;;6074208;23;20389;-70
2023/05/12 02:13:44;;;;;;;19.93;8.97;;;12.50;99.90;;;;;;6099280;23;20522;-72
2023/05/12 02:16:10;;;;;;;20.20;8.43;;;12.50;99.90;;;;;;6097978;23;20267;-72
2023/05/12 02:18:36;;;;;;;24.77;9.40;;;12.50;99.90;;;;;;6098132;23;20204;-73
2023/05/12 02:21:04;;;;;;;24.80;9.97;;;12.50;99.90;;;;;;6074129;23;20396;-74
2023/05/12 02:23:30;;;;;;;31.87;12.03;;;12.50;99.90;;;;;;6099210;23;20408;-74
2023/05/12 02:25:56;;;;;;;25.53;10.03;;;12.50;99.90;;;;;;6100479;23;20400;-72
2023/05/12 02:28:21;;;;;;;20.83;8.37;;;12.50;99.90;;;;;;6099051;23;20148;-71
2023/05/12 02:30:49;;;;;;;19.87;7.80;;;12.50;99.90;;;;;;6073551;23;20191;-74
2023/05/12 02:33:16;;;;;;;27.27;10.83;;;12.50;99.90;;;;;;6097817;23;20504;-73
2023/05/12 02:35:42;;;;;;;32.00;11.77;;;12.50;99.90;;;;;;6098603;23;20375;-71
2023/05/12 02:38:08;;;;;;;33.40;11.40;;;12.50;99.90;;;;;;6073288;23;20369;-72
2023/05/12 02:40:33;;;;;;;35.37;10.47;;;12.50;99.90;;;;;;6073592;23;20423;-73
2023/05/12 02:43:00;;;;;;;23.27;8.70;;;12.50;99.90;;;;;;6099034;23;20137;-72
2023/05/12 02:45:25;;;;;;;18.93;7.80;;;12.50;99.90;;;;;;6074261;23;20207;-73
2023/05/12 02:47:51;;;;;;;30.00;10.80;;;12.50;99.90;;;;;;6073483;23;20436;-72
2023/05/12 02:50:17;;;;;;;52.17;13.60;;;12.50;99.90;;;;;;6073104;23;20491;-70
2023/05/12 02:52:42;;;;;;;36.30;12.30;;;12.50;99.90;;;;;;6098853;23;20133;-72
2023/05/12 02:55:08;;;;;;;36.03;12.83;;;12.50;99.90;;;;;;6096823;23;20161;-71
2023/05/12 02:57:34;;;;;;;34.20;12.20;;;12.50;99.90;;;;;;6076572;23;20413;-71
2023/05/12 03:00:00;;;;;;;31.13;12.03;;;12.50;99.90;;;;;;6074874;23;20183;-73
2023/05/12 03:02:26;;;;;;;43.43;14.97;;;12.50;99.90;;;;;;6073864;23;20238;-72
2023/05/12 03:04:52;;;;;;;29.93;10.70;;;12.50;99.90;;;;;;6098467;23;20542;-73
2023/05/12 03:07:18;;;;;;;37.17;13.03;;;12.50;99.90;;;;;;6073647;23;20137;-71
2023/05/12 03:09:43;;;;;;;37.57;12.90;;;12.50;99.90;;;;;;6072367;23;20494;-71
2023/05/12 03:12:09;;;;;;;32.53;12.07;;;12.60;99.90;;;;;;6098402;23;20526;-71
2023/05/12 03:14:34;;;;;;;47.30;14.10;;;12.60;99.90;;;;;;6072957;23;20148;-73
2023/05/12 03:17:00;;;;;;;54.40;17.33;;;12.60;99.90;;;;;;6073604;23;20434;-72
2023/05/12 03:19:28;;;;;;;63.27;21.60;;;12.60;99.90;;;;;;6097976;23;20169;-72
2023/05/12 03:21:54;;;;;;;65.77;23.20;;;12.60;99.90;;;;;;6097642;23;20167;-74
2023/05/12 03:24:20;;;;;;;52.27;17.63;;;12.50;99.90;;;;;;6100634;23;20947;-72
2023/05/12 03:26:46;;;;;;;52.93;18.00;;;12.50;99.90;;;;;;6073687;23;20463;-72
2023/05/12 03:29:13;;;;;;;35.63;13.53;;;12.50;99.90;;;;;;6097759;23;20192;-77
2023/05/12 03:31:38;;;;;;;38.80;14.77;;;12.50;99.90;;;;;;6102487;23;20639;-74
2023/05/12 03:34:04;;;;;;;35.10;13.23;;;12.40;99.90;;;;;;6075341;23;20376;-74
2023/05/12 03:36:30;;;;;;;31.63;12.30;;;12.40;99.90;;;;;;6098719;23;20141;-72
2023/05/12 03:38:56;;;;;;;47.90;15.43;;;12.40;99.90;;;;;;6073006;23;20245;-73
2023/05/12 03:41:21;;;;;;;32.23;11.40;;;12.40;99.90;;;;;;6098270;23;20388;-72
2023/05/12 03:43:47;;;;;;;28.70;9.87;;;12.30;99.90;;;;;;6098496;23;20170;-73
2023/05/12 03:46:13;;;;;;;21.80;10.30;;;12.30;99.90;;;;;;6098408;23;20458;-73
2023/05/12 03:48:39;;;;;;;21.50;7.67;;;12.30;99.90;;;;;;6075459;23;20149;-77
2023/05/12 03:51:04;;;;;;;30.63;12.10;;;12.30;99.90;;;;;;6100676;23;20171;-76
2023/05/12 03:53:30;;;;;;;28.00;9.90;;;12.30;99.90;;;;;;6098695;23;20141;-73
2023/05/12 03:55:56;;;;;;;19.67;9.30;;;12.20;99.90;;;;;;6073667;23;20219;-72
2023/05/12 03:58:24;;;;;;;26.40;9.33;;;12.30;99.90;;;;;;6073693;23;20153;-72
2023/05/12 04:00:50;;;;;;;23.30;9.60;;;12.30;99.90;;;;;;6076306;23;20504;-74
2023/05/12 04:03:16;;;;;;;18.80;8.23;;;12.30;99.90;;;;;;6098535;23;20420;-71
2023/05/12 04:05:42;;;;;;;23.03;8.13;;;12.20;99.90;;;;;;6097733;23;20153;-71
2023/05/12 04:08:08;;;;;;;17.87;8.77;;;12.20;99.90;;;;;;6099583;23;20384;-71
2023/05/12 04:10:39;;;;;;;26.33;9.27;;;12.10;99.90;;;;;;6099737;23;20629;-72
2023/05/12 04:13:05;;;;;;;18.53;8.23;;;12.10;99.90;;;;;;6099236;23;20376;-72
2023/05/12 04:15:31;;;;;;;19.23;7.67;;;12.10;99.90;;;;;;6099341;23;20679;-72
2023/05/12 04:17:56;;;;;;;18.20;8.50;;;12.00;99.90;;;;;;6074481;23;20357;-74
2023/05/12 04:20:22;;;;;;;17.67;8.30;;;12.00;99.90;;;;;;6074329;23;20503;-72
2023/05/12 04:22:49;;;;;;;15.70;8.90;;;12.00;99.90;;;;;;6099214;23;20144;-73
2023/05/12 04:25:15;;;;;;;19.07;8.13;;;11.90;99.90;;;;;;6099658;23;20435;-74
2023/05/12 04:27:40;;;;;;;13.80;7.73;;;11.90;99.90;;;;;;6100023;23;20369;-72
2023/05/12 04:30:07;;;;;;;12.17;7.57;;;11.90;99.90;;;;;;6050293;23;20164;-72
2023/05/12 04:32:35;;;;;;;15.37;8.77;;;11.90;99.90;;;;;;6099438;23;20145;-73
2023/05/12 04:35:00;;;;;;;16.60;7.80;;;11.90;99.90;;;;;;6100256;23;20376;-72
2023/05/12 04:37:27;;;;;;;13.43;6.80;;;11.90;99.90;;;;;;6073960;23;20442;-74
2023/05/12 04:39:53;;;;;;;10.67;5.87;;;11.90;99.90;;;;;;6082376;23;20408;-71
2023/05/12 04:42:19;;;;;;;13.20;6.70;;;11.90;99.90;;;;;;6101661;23;20220;-72
2023/05/12 04:44:45;;;;;;;12.73;7.10;;;11.90;99.90;;;;;;6100300;23;20411;-73
2023/05/12 04:47:11;;;;;;;10.33;6.43;;;12.00;99.90;;;;;;6074630;23;20220;-73
2023/05/12 04:49:37;;;;;;;9.60;6.20;;;12.00;99.90;;;;;;6099781;23;20396;-74
2023/05/12 04:52:04;;;;;;;14.83;8.57;;;11.90;99.90;;;;;;6075139;23;20424;-73
2023/05/12 04:54:33;;;;;;;13.80;7.30;;;11.90;99.90;;;;;;6074584;23;20165;-75
2023/05/12 04:56:59;;;;;;;12.23;7.20;;;11.90;99.90;;;;;;6098758;23;20444;-73
2023/05/12 04:59:25;;;;;;;13.27;7.73;;;12.00;99.90;;;;;;6073549;23;20401;-73
2023/05/12 05:01:53;;;;;;;15.87;8.90;;;12.00;99.90;;;;;;6078638;23;20152;-75
2023/05/12 05:04:18;;;;;;;16.77;9.00;;;12.00;99.90;;;;;;6107262;23;20429;-76
2023/05/12 05:06:45;;;;;;;14.63;7.00;;;12.00;99.90;;;;;;6081993;23;20185;-76
2023/05/12 05:09:12;;;;;;;19.00;7.83;;;12.00;99.90;;;;;;6083727;23;20821;-75
2023/05/12 05:11:38;;;;;;;11.07;6.93;;;12.10;99.90;;;;;;6059941;23;20401;-74
2023/05/12 05:14:03;;;;;;;17.43;8.80;;;12.10;99.90;;;;;;6109286;23;20867;-75
2023/05/12 05:16:30;;;;;;;15.57;9.10;;;12.10;99.90;;;;;;6085596;23;20156;-74
2023/05/12 05:18:56;;;;;;;14.10;7.00;;;12.10;99.90;;;;;;6113249;23;20371;-75
2023/05/12 05:21:23;;;;;;;9.10;6.40;;;12.10;99.90;;;;;;6085114;23;20147;-74
2023/05/12 05:23:48;;;;;;;11.30;6.50;;;12.10;99.90;;;;;;6112437;23;20409;-77
2023/05/12 05:26:14;;;;;;;12.90;8.07;;;12.10;99.90;;;;;;6090107;23;20152;-73
2023/05/12 05:28:40;;;;;;;14.17;7.40;;;12.10;99.90;;;;;;6085300;23;20377;-76
2023/05/12 05:31:07;;;;;;;14.27;8.43;;;12.10;99.90;;;;;;6115939;23;20125;-74
2023/05/12 05:33:33;;;;;;;14.07;7.73;;;12.10;99.90;;;;;;6083348;23;20373;-75
2023/05/12 05:35:59;;;;;;;10.97;7.20;;;12.10;99.90;;;;;;6082606;23;20377;-75
2023/05/12 05:38:25;;;;;;;18.27;9.30;;;12.20;99.90;;;;;;6085267;23;20174;-77
2023/05/12 05:40:51;;;;;;;12.87;9.13;;;12.20;99.90;;;;;;6087556;23;20482;-74
2023/05/12 05:43:17;;;;;;;13.47;8.33;;;12.20;99.90;;;;;;6089031;23;20376;-78
2023/05/12 05:45:43;;;;;;;15.50;8.40;;;12.10;99.90;;;;;;6065823;23;20149;-75
2023/05/12 05:48:09;;;;;;;15.23;8.83;;;12.10;99.90;;;;;;6112646;23;20172;-77
2023/05/12 05:50:34;;;;;;;11.33;8.07;;;12.10;99.90;;;;;;6088316;23;20400;-76
2023/05/12 05:53:00;;;;;;;13.87;8.90;;;12.10;99.90;;;;;;6060061;23;20428;-76
2023/05/12 05:55:26;;;;;;;16.77;8.27;;;12.10;99.90;;;;;;6062272;23;20160;-76
2023/05/12 05:57:52;;;;;;;14.50;9.97;;;12.10;99.90;;;;;;6062334;23;20301;-74
2023/05/12 06:00:18;;;;;;;12.60;9.40;;;12.10;99.90;;;;;;6110448;23;20176;-74
2023/05/12 06:02:47;;;;;;;11.13;8.83;;;12.20;99.90;;;;;;6082563;23;20375;-73
2023/05/12 06:05:16;;;;;;;15.67;10.40;;;12.30;99.90;;;;;;6081989;23;20455;-76
2023/05/12 06:07:42;;;;;;;13.83;8.80;;;12.30;99.90;;;;;;6108488;23;20380;-75
2023/05/12 06:10:08;;;;;;;10.83;8.60;;;12.30;99.90;;;;;;6084648;23;20421;-74
2023/05/12 06:12:34;;;;;;;15.13;9.40;;;12.40;99.90;;;;;;6108234;23;20187;-74
2023/05/12 06:14:59;;;;;;;14.17;10.13;;;12.40;99.90;;;;;;6083586;23;20227;-74
2023/05/12 06:17:25;;;;;;;11.30;9.03;;;12.50;99.90;;;;;;6083539;23;20368;-76
2023/05/12 06:19:51;;;;;;;10.40;8.83;;;12.60;99.90;;;;;;6108003;23;20643;-74
2023/05/12 06:22:17;;;;;;;9.10;7.47;;;12.60;99.90;;;;;;6084186;23;20427;-76
2023/05/12 06:24:44;;;;;;;10.17;8.33;;;12.50;99.90;;;;;;6060292;23;20188;-76
2023/05/12 06:27:10;;;;;;;7.40;6.50;;;12.40;99.90;;;;;;6061285;23;20404;-76
2023/05/12 06:29:35;;;;;;;8.43;7.20;;;12.40;99.90;;;;;;6083234;23;20173;-75
2023/05/12 06:32:01;;;;;;;8.00;7.20;;;12.50;99.90;;;;;;6085659;23;20139;-75
2023/05/12 06:34:26;;;;;;;7.10;6.40;;;12.60;99.90;;;;;;6086239;23;20414;-74
2023/05/12 06:36:52;;;;;;;7.47;6.77;;;12.60;99.90;;;;;;6085605;23;20203;-74
2023/05/12 06:39:18;;;;;;;7.20;6.20;;;12.80;99.90;;;;;;6109603;23;20190;-74
2023/05/12 06:41:44;;;;;;;7.63;6.10;;;13.10;99.90;;;;;;6087637;23;20518;-74
2023/05/12 06:44:18;;;;;;;6.00;5.10;;;13.20;99.90;;;;;;6108937;23;20424;-74
2023/05/12 06:46:44;;;;;;;5.93;5.43;;;13.20;99.90;;;;;;6062117;23;20390;-76
2023/05/12 06:49:10;;;;;;;6.60;5.90;;;13.30;99.90;;;;;;6113020;23;20622;-77
2023/05/12 06:51:35;;;;;;;5.90;5.23;;;13.40;99.90;;;;;;6086255;23;20149;-74
2023/05/12 06:54:01;;;;;;;8.57;6.57;;;13.50;99.90;;;;;;6085225;23;20212;-77
2023/05/12 06:56:30;;;;;;;6.70;5.30;;;13.50;99.90;;;;;;6058873;23;20216;-77
2023/05/12 06:59:01;;;;;;;6.30;5.70;;;13.40;99.90;;;;;;6110930;23;20373;-76
2023/05/12 07:01:28;;;;;;;6.40;5.80;;;13.50;99.90;;;;;;6090151;23;20390;-77
2023/05/12 07:03:54;;;;;;;5.87;5.33;;;13.50;99.90;;;;;;6115728;23;20431;-76
2023/05/12 07:06:20;;;;;;;6.17;4.70;;;13.70;99.90;;;;;;6088604;23;20601;-77
2023/05/12 07:08:47;;;;;;;6.80;5.20;;;13.80;99.90;;;;;;6110225;23;20378;-78
2023/05/12 07:11:18;;;;;;;6.50;5.43;;;13.90;99.90;;;;;;6086781;23;20384;-76
2023/05/12 07:13:47;;;;;;;5.03;4.50;;;13.90;99.90;;;;;;6109052;23;20384;-78
2023/05/12 07:16:14;;;;;;;4.90;3.80;;;14.10;99.90;;;;;;6109797;23;20393;-75
2023/05/12 07:18:40;;;;;;;4.60;4.20;;;14.30;99.90;;;;;;6060094;23;20420;-75
2023/05/12 07:21:05;;;;;;;4.30;3.90;;;14.60;99.90;;;;;;6087565;23;20388;-76
2023/05/12 07:23:33;;;;;;;10.23;5.10;;;14.70;99.90;;;;;;6086881;23;20173;-76
2023/05/12 07:25:59;;;;;;;4.57;4.17;;;14.90;99.90;;;;;;6111287;23;20141;-77
2023/05/12 07:28:25;;;;;;;4.00;3.33;;;15.10;99.90;;;;;;6088785;23;20377;-79
2023/05/12 07:30:50;;;;;;;4.50;4.10;;;15.20;99.90;;;;;;6062955;23;20400;-76
2023/05/12 07:33:16;;;;;;;4.90;3.30;;;15.30;99.90;;;;;;6113063;23;20635;-77
2023/05/12 07:35:42;;;;;;;4.47;3.77;;;15.60;99.90;;;;;;6064550;23;20236;-76
2023/05/12 07:38:08;;;;;;;3.20;2.90;;;15.80;99.90;;;;;;6087918;23;20153;-77
2023/05/12 07:40:34;;;;;;;4.00;3.50;;;16.00;99.90;;;;;;6087027;23;20463;-77
2023/05/12 07:43:01;;;;;;;5.13;3.57;;;16.20;99.90;;;;;;6087338;23;20376;-78
2023/05/12 07:45:27;;;;;;;4.40;3.50;;;16.30;99.90;;;;;;6086396;23;20480;-76
2023/05/12 07:47:52;;;;;;;3.87;2.87;;;16.50;99.90;;;;;;6085809;23;20362;-77
2023/05/12 07:50:18;;;;;;;3.10;2.63;;;16.60;99.90;;;;;;6088547;23;20558;-79
2023/05/12 07:52:46;;;;;;;3.63;2.90;;;16.60;99.90;;;;;;6089420;23;20140;-78
2023/05/12 07:55:15;;;;;;;6.20;3.30;;;16.60;99.90;;;;;;6114901;23;20380;-78
2023/05/12 07:57:43;;;;;;;3.30;3.00;;;16.70;99.90;;;;;;6065308;23;20381;-77
2023/05/12 08:00:13;;;;;;;2.70;2.50;;;16.80;99.90;;;;;;6090257;23;20403;-78
2023/05/12 08:02:40;;;;;;;4.00;3.63;;;16.90;99.90;;;;;;6113488;23;20763;-74
2023/05/12 08:05:09;;;;;;;2.63;2.43;;;17.10;99.90;;;;;;6087672;23;20431;-79
2023/05/12 08:07:36;;;;;;;2.00;1.90;;;17.20;99.90;;;;;;6113422;23;20365;-79
2023/05/12 08:10:04;;;;;;;2.90;2.70;;;17.30;99.00;;;;;;6115346;23;20384;-79
2023/05/12 08:12:29;;;;;;;2.97;2.30;;;17.30;99.20;;;;;;6066547;23;20494;-77
2023/05/12 08:14:56;;;;;;;7.13;2.70;;;17.40;98.20;;;;;;6088838;23;20436;-77
2023/05/12 08:17:23;;;;;;;2.67;2.30;;;17.50;97.60;;;;;;6066052;23;20383;-78
2023/05/12 08:19:48;;;;;;;2.67;2.47;;;17.60;94.80;;;;;;6116158;23;20173;-76
2023/05/12 08:22:14;;;;;;;2.60;2.40;;;17.70;93.80;;;;;;6091037;23;20371;-77
2023/05/12 08:24:40;;;;;;;2.23;2.00;;;17.80;94.60;;;;;;6092954;23;20180;-79
2023/05/12 08:27:06;;;;;;;2.60;2.40;;;18.00;91.30;;;;;;6068243;23;20414;-79
2023/05/12 08:29:32;;;;;;;5.70;2.53;;;18.10;87.50;;;;;;6113954;23;20219;-77
2023/05/12 08:31:57;;;;;;;2.80;2.47;;;18.10;88.00;;;;;;6088088;23;20479;-78
2023/05/12 08:34:24;;;;;;;2.37;2.13;;;18.10;89.10;;;;;;6090636;23;20163;-79
2023/05/12 08:36:53;;;;;;;2.37;2.17;;;18.10;90.10;;;;;;6092713;23;20135;-77
2023/05/12 08:39:19;;;;;;;3.40;2.30;;;18.00;90.80;;;;;;6087728;23;20408;-75
2023/05/12 08:42:12;;;;;;;2.80;2.50;;;18.10;84.70;;;;;;6113971;23;20372;-78
2023/05/12 08:44:42;;;;;;;2.50;2.30;;;18.10;84.90;;;;;;6090889;23;20428;-77
2023/05/12 08:47:10;;;;;;;2.07;1.83;;;18.20;86.40;;;;;;6090677;23;20382;-79
2023/05/12 08:49:38;;;;;;;2.80;1.67;;;18.20;88.80;;;;;;6095508;23;20409;-77
2023/05/12 08:52:06;;;;;;;2.50;2.10;;;18.50;84.00;;;;;;6092902;23;20408;-79
2023/05/12 08:54:32;;;;;;;2.80;2.50;;;18.60;77.80;;;;;;6092672;23;20481;-79
2023/05/12 08:56:59;;;;;;;6.67;2.97;;;18.80;78.20;;;;;;6068368;23;20367;-77
2023/05/12 08:59:25;;;;;;;2.20;1.70;;;18.70;75.50;;;;;;6091304;23;20227;-79
2023/05/12 09:01:53;;;;;;;2.17;1.97;;;18.70;77.30;;;;;;6115108;23;20836;-77
2023/05/12 09:04:19;;;;;;;2.83;2.53;;;18.80;75.40;;;;;;6090726;23;20221;-78
2023/05/12 09:06:45;;;;;;;2.97;2.30;;;18.90;75.90;;;;;;6089110;23;20379;-78
2023/05/12 09:09:16;;;;;;;2.23;1.97;;;19.20;72.50;;;;;;6066939;23;20391;-79
2023/05/12 09:11:43;;;;;;;1.70;1.60;;;19.20;70.10;;;;;;6093675;23;20386;-78
2023/05/12 09:14:17;;;;;;;3.73;2.00;;;19.30;69.80;;;;;;6091142;23;20398;-77
2023/05/12 09:16:47;;;;;;;2.70;2.00;;;19.30;70.50;;;;;;6112646;23;20387;-79
2023/05/12 09:19:20;;;;;;;2.40;2.13;;;19.40;67.60;;;;;;6113668;23;20407;-79
2023/05/12 09:21:50;;;;;;;2.80;2.20;;;19.20;70.00;;;;;;6065615;23;20414;-77
2023/05/12 09:24:16;;;;;;;4.10;2.13;;;19.30;68.70;;;;;;6089812;23;20450;-77
2023/05/12 09:26:52;;;;;;;2.00;1.80;;;19.40;67.70;;;;;;6067930;23;20387;-78
2023/05/12 09:29:19;;;;;;;2.37;2.17;;;19.40;67.20;;;;;;6089793;23;20227;-78
2023/05/12 09:32:06;;;;;;;2.90;1.90;;;19.40;69.30;;;;;;6068760;23;20419;-79
2023/05/12 09:34:37;;;;;;;3.20;2.37;;;19.50;66.60;;;;;;6097388;23;20403;-79
2023/05/12 09:37:06;;;;;;;5.07;2.60;;;19.50;66.40;;;;;;6069367;23;20639;-78
2023/05/12 09:39:33;;;;;;;3.83;2.07;;;19.40;67.40;;;;;;6096929;23;20419;-79
2023/05/12 09:41:59;;;;;;;2.37;2.17;;;19.60;68.10;;;;;;6075562;23;20400;-79
2023/05/12 09:44:27;;;;;;;2.93;2.40;;;19.80;65.00;;;;;;6071771;23;20420;-78
2023/05/12 09:46:56;;;;;;;3.93;2.27;;;19.80;65.40;;;;;;6119978;23;20376;-78
2023/05/12 09:49:26;;;;;;;2.73;2.30;;;20.10;64.30;;;;;;6117673;23;20396;-77
2023/05/12 09:51:57;;;;;;;2.93;2.67;;;20.40;61.90;;;;;;6114905;23;20468;-76
2023/05/12 09:54:25;;;;;;;3.30;2.53;;;20.40;61.60;;;;;;6117919;23;20440;-79
2023/05/12 09:56:54;;;;;;;2.70;2.40;;;20.60;59.80;;;;;;6090547;23;20399;-78
2023/05/12 09:59:25;;;;;;;2.97;2.20;;;20.50;59.50;;;;;;6114015;23;20440;-79
2023/05/12 10:01:53;;;;;;;2.77;2.00;;;20.70;60.80;;;;;;6055437;23;20427;-78
2023/05/12 10:04:20;;;;;;;2.80;2.60;;;21.00;58.40;;;;;;6055974;23;20430;-79
2023/05/12 10:06:46;;;;;;;2.33;2.10;;;20.90;58.60;;;;;;6031906;23;20438;-78
2023/05/12 10:09:30;;;;;;;3.10;2.20;;;20.80;59.50;;;;;;6034205;23;20418;-80
2023/05/12 10:11:57;;;;;;;3.53;2.80;;;21.00;59.20;;;;;;6058251;23;20839;-79
2023/05/12 10:14:24;;;;;;;3.53;2.20;;;21.30;57.10;;;;;;6056094;23;20375;-78
2023/05/12 10:16:51;;;;;;;2.50;1.77;;;21.20;57.30;;;;;;6033555;23;20390;-79
2023/05/12 10:19:18;;;;;;;3.23;2.40;;;21.40;56.50;;;;;;6055689;23;20406;-77
2023/05/12 10:21:46;;;;;;;3.37;2.30;;;21.30;56.00;;;;;;6057420;23;20378;-77
2023/05/12 10:24:17;;;;;;;4.30;2.30;;;21.20;56.10;;;;;;6008444;23;20805;-76
2023/05/12 10:26:43;;;;;;;3.20;2.70;;;21.20;56.20;;;;;;6055108;23;20387;-78
2023/05/12 10:29:11;;;;;;;2.83;2.30;;;21.10;56.30;;;;;;6055854;23;20435;-77
2023/05/12 10:31:37;;;;;;;3.10;2.20;;;21.30;56.40;;;;;;6032739;23;20446;-77
2023/05/12 10:34:04;;;;;;;3.40;2.73;;;21.60;56.30;;;;;;6091232;23;20387;-78
2023/05/12 10:36:30;;;;;;;3.77;2.40;;;22.00;54.00;;;;;;6070382;23;20477;-79
2023/05/12 10:39:23;;;;;;;3.03;2.13;;;22.10;53.40;;;;;;6093840;23;20439;-79
2023/05/12 10:42:04;;;;;;;3.13;2.23;;;22.20;53.10;;;;;;6096438;23;20392;-78
2023/05/12 10:44:30;;;;;;;3.20;2.50;;;22.20;52.40;;;;;;6119209;23;20418;-79
2023/05/12 10:47:00;;;;;;;2.63;2.43;;;22.30;51.60;;;;;;6091426;23;20439;-78
2023/05/12 10:49:36;;;;;;;4.63;2.30;;;22.20;52.40;;;;;;6115425;23;20400;-80
2023/05/12 10:52:02;;;;;;;2.80;2.50;;;22.30;49.80;;;;;;6093598;23;20372;-78
2023/05/12 10:54:27;;;;;;;4.70;2.77;;;22.20;49.50;;;;;;6069775;23;20435;-79
2023/05/12 10:56:58;;;;;;;9.63;2.43;;;21.90;49.90;;;;;;6094022;23;20153;-79
2023/05/12 10:59:26;;;;;;;3.10;2.50;;;21.50;52.10;;;;;;6121127;23;20204;-80
2023/05/12 11:02:17;;;;;;;3.37;3.00;;;21.60;53.20;;;;;;6095538;23;20381;-79
2023/05/12 11:05:03;;;;;;;2.57;2.37;;;21.50;53.10;;;;;;6120829;23;20416;-79
2023/05/12 11:07:31;;;;;;;2.63;2.43;;;21.60;53.70;;;;;;6119883;23;20383;-80
2023/05/12 11:10:01;;;;;;;5.83;2.77;;;21.80;53.50;;;;;;6120255;23;20387;-80
2023/05/12 11:12:31;;;;;;;7.70;3.10;;;21.70;53.50;;;;;;6097002;23;20731;-81
2023/05/12 11:15:00;;;;;;;11.47;2.70;;;21.80;53.80;;;;;;6120355;23;20429;-79
2023/05/12 11:17:28;;;;;;;4.33;2.93;;;21.80;53.90;;;;;;6119072;23;20372;-81
2023/05/12 11:19:55;;;;;;;3.17;2.87;;;21.80;54.50;;;;;;6094496;23;20405;-80
2023/05/12 11:22:22;;;;;;;3.33;3.00;;;21.90;53.20;;;;;;6072837;23;20380;-79
2023/05/12 11:24:49;;;;;;;3.53;2.40;;;22.10;53.30;;;;;;6094946;23;20456;-79
2023/05/12 11:27:17;;;;;;;3.20;2.40;;;22.20;52.80;;;;;;6096130;23;20373;-78
2023/05/12 11:29:45;;;;;;;3.70;2.63;;;22.30;52.40;;;;;;6070965;23;20397;-80
2023/05/12 11:32:14;;;;;;;2.47;2.27;;;22.40;52.10;;;;;;6094306;23;20388;-78
2023/05/12 11:34:40;;;;;;;4.57;3.17;;;22.40;51.60;;;;;;6117697;23;20353;-79
2023/05/12 11:37:06;;;;;;;2.97;2.67;;;22.20;51.80;;;;;;6094812;23;20384;-80
2023/05/12 11:39:33;;;;;;;7.40;2.20;;;22.10;52.10;;;;;;6070312;23;20427;-81
2023/05/12 11:42:03;;;;;;;3.10;2.70;;;22.10;52.10;;;;;;6094630;23;20393;-79
2023/05/12 11:44:29;;;;;;;2.40;2.20;;;21.90;52.10;;;;;;6094481;23;20412;-78
2023/05/12 11:46:57;;;;;;;2.90;2.20;;;21.90;52.20;;;;;;6095555;23;20373;-79
2023/05/12 11:49:24;;;;;;;3.40;2.80;;;21.80;52.40;;;;;;6091799;23;20428;-80
2023/05/12 11:51:52;;;;;;;3.00;2.70;;;21.90;52.50;;;;;;6068420;23;20369;-79
2023/05/12 11:54:18;;;;;;;4.77;2.90;;;21.80;52.50;;;;;;6097612;23;20396;-79
2023/05/12 11:56:51;;;;;;;3.50;2.90;;;21.70;52.70;;;;;;6120655;23;20357;-79
2023/05/12 11:59:36;;;;;;;3.33;2.30;;;21.80;53.20;;;;;;6093375;23;20467;-79
2023/05/12 12:02:02;;;;;;;4.87;3.00;;;22.10;52.60;;;;;;6119469;23;20369;-79
2023/05/12 12:04:31;;;;;;;2.60;2.17;;;22.20;50.40;;;;;;6118148;23;20428;-79
2023/05/12 12:06:58;;;;;;;6.93;2.40;;;22.60;49.70;;;;;;6093844;23;20396;-79
2023/05/12 12:09:31;;;;;;;3.00;2.63;;;22.60;49.80;;;;;;6096107;23;20400;-77
2023/05/12 12:11:57;;;;;;;3.73;2.67;;;22.80;49.60;;;;;;6069689;23;20405;-79
2023/05/12 12:14:23;;;;;;;3.03;2.73;;;23.20;47.60;;;;;;6070483;23;20384;-79
2023/05/12 12:16:49;;;;;;;3.13;2.30;;;23.60;44.90;;;;;;6098532;23;20439;-82
2023/05/12 12:19:18;;;;;;;5.03;3.20;;;23.70;44.20;;;;;;6091033;23;20408;-79
2023/05/12 12:21:44;;;;;;;4.07;2.60;;;23.80;44.40;;;;;;6089497;23;20188;-78
2023/05/12 12:24:10;;;;;;;4.10;2.87;;;23.80;43.80;;;;;;6086869;23;20862;-79
2023/05/12 12:26:35;;;;;;;2.00;1.80;;;23.70;43.40;;;;;;6087583;23;20153;-79
2023/05/12 12:29:01;;;;;;;3.60;2.60;;;23.40;44.70;;;;;;6086765;23;20158;-79
2023/05/12 12:31:30;;;;;;;4.20;2.67;;;23.20;45.20;;;;;;6065194;23;20250;-79
2023/05/12 12:33:56;;;;;;;3.70;2.43;;;23.10;45.00;;;;;;6087109;23;20354;-81
2023/05/12 12:36:23;;;;;;;3.83;3.40;;;23.10;45.50;;;;;;6064036;23;20437;-78
2023/05/12 12:38:49;;;;;;;5.03;3.20;;;23.00;45.30;;;;;;6088665;23;20361;-79